sensor_id;sensor_type;location;lat;lon;timestamp;pressure;altitude;pressure_sealevel;temperature;humidity
78354;BME280;67629;46.040;18.232;2023-07-31T00:08:48;99496.91;;;19.22;90.85
78354;BME280;67629;46.040;18.232;2023-07-31T00:09:43;99487.44;;;19.23;90.45
78354;BME280;67629;46.040;18.232;2023-07-31T00:10:14;99496.31;;;19.25;90.48
78354;BME280;67629;46.040;18.232;2023-07-31T00:10:45;99494.31;;;19.26;90.13
78354;BME280;67629;46.040;18.232;2023-07-31T00:11:15;99485.72;;;19.27;89.84
78354;BME280;67629;46.040;18.232;2023-07-31T00:11:46;99490.75;;;19.25;89.99
78354;BME280;67629;46.040;18.232;2023-07-31T00:12:17;99488.00;;;19.25;90.01
78354;BME280;67629;46.040;18.232;2023-07-31T00:12:47;99478.31;;;19.23;89.77
78354;BME280;67629;46.040;18.232;2023-07-31T00:13:18;99483.56;;;19.24;89.72
78354;BME280;67629;46.040;18.232;2023-07-31T00:13:49;99475.88;;;19.21;89.72
78354;BME280;67629;46.040;18.232;2023-07-31T00:14:19;99478.41;;;19.18;90.18
78354;BME280;67629;46.040;18.232;2023-07-31T00:14:50;99484.78;;;19.18;90.44
78354;BME280;67629;46.040;18.232;2023-07-31T00:15:20;99486.59;;;19.09;91.23
78354;BME280;67629;46.040;18.232;2023-07-31T00:15:51;99473.13;;;19.03;91.47
78354;BME280;67629;46.040;18.232;2023-07-31T00:16:22;99480.63;;;19.02;91.17
78354;BME280;67629;46.040;18.232;2023-07-31T00:16:53;99480.03;;;19.05;91.20
78354;BME280;67629;46.040;18.232;2023-07-31T00:20:30;99483.91;;;19.04;91.23
78354;BME280;67629;46.040;18.232;2023-07-31T00:21:00;99487.50;;;19.05;91.17
78354;BME280;67629;46.040;18.232;2023-07-31T00:21:32;99491.63;;;19.07;91.23
78354;BME280;67629;46.040;18.232;2023-07-31T00:22:03;99483.00;;;19.09;90.15
78354;BME280;67629;46.040;18.232;2023-07-31T00:22:33;99487.50;;;19.05;90.99
78354;BME280;67629;46.040;18.232;2023-07-31T00:23:04;99485.25;;;19.07;90.25
78354;BME280;67629;46.040;18.232;2023-07-31T00:23:35;99482.59;;;19.02;90.89
78354;BME280;67629;46.040;18.232;2023-07-31T00:24:06;99490.88;;;19.02;91.30
78354;BME280;67629;46.040;18.232;2023-07-31T00:24:36;99491.41;;;19.04;90.86
78354;BME280;67629;46.040;18.232;2023-07-31T00:25:07;99484.75;;;19.05;91.09
78354;BME280;67629;46.040;18.232;2023-07-31T00:25:38;99495.22;;;19.08;91.28
78354;BME280;67629;46.040;18.232;2023-07-31T00:26:21;99498.81;;;19.08;91.31
78354;BME280;67629;46.040;18.232;2023-07-31T00:26:51;99492.44;;;19.08;91.04
78354;BME280;67629;46.040;18.232;2023-07-31T00:27:22;99486.59;;;19.09;91.52
78354;BME280;67629;46.040;18.232;2023-07-31T00:27:52;99495.22;;;19.08;90.49
78354;BME280;67629;46.040;18.232;2023-07-31T00:28:23;99494.69;;;19.06;91.00
78354;BME280;67629;46.040;18.232;2023-07-31T00:28:53;99493.56;;;19.07;90.87
78354;BME280;67629;46.040;18.232;2023-07-31T00:29:24;99493.56;;;19.07;90.81
78354;BME280;67629;46.040;18.232;2023-07-31T00:29:55;99494.38;;;19.07;90.61
78354;BME280;67629;46.040;18.232;2023-07-31T00:31:20;99504.94;;;19.05;90.17
78354;BME280;67629;46.040;18.232;2023-07-31T00:31:51;99501.34;;;19.05;90.29
78354;BME280;67629;46.040;18.232;2023-07-31T00:32:22;99497.75;;;19.04;89.90
78354;BME280;67629;46.040;18.232;2023-07-31T00:32:52;99506.34;;;19.03;90.29
78354;BME280;67629;46.040;18.232;2023-07-31T00:33:23;99505.63;;;18.97;90.26
78354;BME280;67629;46.040;18.232;2023-07-31T00:33:53;99501.81;;;18.93;90.81
78354;BME280;67629;46.040;18.232;2023-07-31T00:34:24;99508.47;;;18.92;90.75
78354;BME280;67629;46.040;18.232;2023-07-31T00:34:55;99506.75;;;18.96;90.58
78354;BME280;67629;46.040;18.232;2023-07-31T00:35:25;99507.59;;;18.97;90.22
78354;BME280;67629;46.040;18.232;2023-07-31T00:35:59;99511.47;;;18.96;90.16
78354;BME280;67629;46.040;18.232;2023-07-31T00:36:29;99504.81;;;18.97;90.44
78354;BME280;67629;46.040;18.232;2023-07-31T00:37:00;99507.03;;;18.95;90.64
78354;BME280;67629;46.040;18.232;2023-07-31T00:37:31;99507.34;;;18.93;90.74
78354;BME280;67629;46.040;18.232;2023-07-31T00:38:01;99509.91;;;18.90;91.08
78354;BME280;67629;46.040;18.232;2023-07-31T00:38:32;99513.19;;;18.92;90.42
78354;BME280;67629;46.040;18.232;2023-07-31T00:39:03;99512.06;;;18.93;90.29
78354;BME280;67629;46.040;18.232;2023-07-31T00:39:35;99512.56;;;18.95;90.17
78354;BME280;67629;46.040;18.232;2023-07-31T00:40:07;99513.19;;;18.92;90.29
78354;BME280;67629;46.040;18.232;2023-07-31T00:40:38;99512.16;;;18.88;90.28
78354;BME280;67629;46.040;18.232;2023-07-31T00:41:08;99509.38;;;18.88;90.58
78354;BME280;67629;46.040;18.232;2023-07-31T00:41:39;99513.78;;;18.89;90.64
78354;BME280;67629;46.040;18.232;2023-07-31T00:42:10;99509.91;;;18.90;91.06
78354;BME280;67629;46.040;18.232;2023-07-31T00:42:40;99518.53;;;18.88;91.05
78354;BME280;67629;46.040;18.232;2023-07-31T00:43:11;99516.25;;;18.90;90.68
78354;BME280;67629;46.040;18.232;2023-07-31T00:43:41;99513.28;;;18.87;90.67
78354;BME280;67629;46.040;18.232;2023-07-31T00:44:12;99521.66;;;18.82;91.05
78354;BME280;67629;46.040;18.232;2023-07-31T00:44:43;99525.75;;;18.84;90.97
78354;BME280;67629;46.040;18.232;2023-07-31T00:45:13;99524.34;;;18.87;90.43
78354;BME280;67629;46.040;18.232;2023-07-31T00:45:44;99526.69;;;18.80;90.82
78354;BME280;67629;46.040;18.232;2023-07-31T00:46:15;99525.03;;;18.78;91.14
78354;BME280;67629;46.040;18.232;2023-07-31T00:46:45;99529.72;;;18.78;91.54
78354;BME280;67629;46.040;18.232;2023-07-31T00:47:17;99526.69;;;18.80;91.09
78354;BME280;67629;46.040;18.232;2023-07-31T00:47:48;99529.97;;;18.82;90.90
78354;BME280;67629;46.040;18.232;2023-07-31T00:48:19;99516.63;;;18.84;90.96
78354;BME280;67629;46.040;18.232;2023-07-31T00:48:49;99526.06;;;18.83;90.71
78354;BME280;67629;46.040;18.232;2023-07-31T00:49:21;99527.19;;;18.82;91.10
78354;BME280;67629;46.040;18.232;2023-07-31T00:49:52;99529.13;;;18.81;90.70
78354;BME280;67629;46.040;18.232;2023-07-31T00:50:24;99525.91;;;18.74;91.32
78354;BME280;67629;46.040;18.232;2023-07-31T00:50:55;99519.72;;;18.63;92.16
78354;BME280;67629;46.040;18.232;2023-07-31T00:51:26;99516.34;;;18.66;91.42
78354;BME280;67629;46.040;18.232;2023-07-31T00:51:57;99523.75;;;18.71;91.57
78354;BME280;67629;46.040;18.232;2023-07-31T00:52:28;99516.84;;;18.68;91.29
78354;BME280;67629;46.040;18.232;2023-07-31T00:52:59;99520.22;;;18.65;91.82
78354;BME280;67629;46.040;18.232;2023-07-31T00:53:29;99524.13;;;18.64;91.70
78354;BME280;67629;46.040;18.232;2023-07-31T00:54:00;99517.84;;;18.59;91.64
78354;BME280;67629;46.040;18.232;2023-07-31T00:54:32;99525.31;;;18.58;92.21
78354;BME280;67629;46.040;18.232;2023-07-31T00:55:03;99524.22;;;18.59;92.01
78354;BME280;67629;46.040;18.232;2023-07-31T00:55:34;99525.09;;;18.55;91.79
78354;BME280;67629;46.040;18.232;2023-07-31T00:56:06;99520.38;;;18.55;91.98
78354;BME280;67629;46.040;18.232;2023-07-31T00:56:36;99517.94;;;18.54;92.23
78354;BME280;67629;46.040;18.232;2023-07-31T00:57:08;99525.41;;;18.53;91.97
78354;BME280;67629;46.040;18.232;2023-07-31T00:57:41;99517.09;;;18.53;92.34
78354;BME280;67629;46.040;18.232;2023-07-31T00:58:12;99517.38;;;18.52;92.05
78354;BME280;67629;46.040;18.232;2023-07-31T00:58:42;99520.97;;;18.52;91.87
78354;BME280;67629;46.040;18.232;2023-07-31T00:59:13;99517.69;;;18.50;92.02
78354;BME280;67629;46.040;18.232;2023-07-31T00:59:44;99518.81;;;18.49;91.91
78354;BME280;67629;46.040;18.232;2023-07-31T01:00:14;99509.69;;;18.49;91.95
78354;BME280;67629;46.040;18.232;2023-07-31T01:00:45;99513.00;;;18.46;92.01
78354;BME280;67629;46.040;18.232;2023-07-31T01:01:16;99503.59;;;18.47;91.78
78354;BME280;67629;46.040;18.232;2023-07-31T01:01:47;99507.78;;;18.44;91.95
78354;BME280;67629;46.040;18.232;2023-07-31T01:02:17;99505.91;;;18.40;92.27
78354;BME280;67629;46.040;18.232;2023-07-31T01:02:50;99504.56;;;18.37;92.61
78354;BME280;67629;46.040;18.232;2023-07-31T01:03:21;99502.97;;;18.31;92.65
78354;BME280;67629;46.040;18.232;2023-07-31T01:03:53;99493.56;;;18.32;92.81
78354;BME280;67629;46.040;18.232;2023-07-31T01:04:24;99501.59;;;18.34;92.78
78354;BME280;67629;46.040;18.232;2023-07-31T01:04:55;99501.28;;;18.35;92.77
78354;BME280;67629;46.040;18.232;2023-07-31T01:09:01;99504.47;;;18.23;92.46
78354;BME280;67629;46.040;18.232;2023-07-31T01:10:12;99507.75;;;18.26;91.40
78354;BME280;67629;46.040;18.232;2023-07-31T01:10:52;99504.94;;;18.31;91.23
78354;BME280;67629;46.040;18.232;2023-07-31T01:11:27;99502.47;;;18.29;90.90
78354;BME280;67629;46.040;18.232;2023-07-31T01:12:03;99510.69;;;18.34;90.56
78354;BME280;67629;46.040;18.232;2023-07-31T01:12:34;99501.34;;;18.30;90.92
78354;BME280;67629;46.040;18.232;2023-07-31T01:13:08;99509.34;;;18.32;91.14
78354;BME280;67629;46.040;18.232;2023-07-31T01:13:39;99507.41;;;18.32;90.52
78354;BME280;67629;46.040;18.232;2023-07-31T01:14:09;99496.84;;;18.34;90.78
78354;BME280;67629;46.040;18.232;2023-07-31T01:14:40;99503.81;;;18.32;90.81
78354;BME280;67629;46.040;18.232;2023-07-31T01:15:11;99496.06;;;18.34;90.67
78354;BME280;67629;46.040;18.232;2023-07-31T01:15:41;99498.50;;;18.35;90.08
78354;BME280;67629;46.040;18.232;2023-07-31T01:16:12;99503.22;;;18.35;90.31
78354;BME280;67629;46.040;18.232;2023-07-31T01:16:43;99501.28;;;18.35;90.09
78354;BME280;67629;46.040;18.232;2023-07-31T01:21:00;99503.22;;;18.35;89.80
78354;BME280;67629;46.040;18.232;2023-07-31T01:22:30;99500.16;;;18.36;90.11
78354;BME280;67629;46.040;18.232;2023-07-31T01:23:35;99494.63;;;18.36;89.61
78354;BME280;67629;46.040;18.232;2023-07-31T01:25:56;99489.84;;;18.42;89.40
78354;BME280;67629;46.040;18.232;2023-07-31T01:26:34;99490.13;;;18.40;89.53
78354;BME280;67629;46.040;18.232;2023-07-31T01:27:15;99492.91;;;18.40;89.29
78354;BME280;67629;46.040;18.232;2023-07-31T01:28:03;99497.31;;;18.41;89.19
78354;BME280;67629;46.040;18.232;2023-07-31T01:28:50;99501.19;;;18.40;89.07
78354;BME280;67629;46.040;18.232;2023-07-31T01:29:49;99501.19;;;18.40;88.65
78354;BME280;67629;46.040;18.232;2023-07-31T01:30:32;99493.72;;;18.41;88.56
78354;BME280;67629;46.040;18.232;2023-07-31T01:31:07;99502.25;;;18.44;88.18
78354;BME280;67629;46.040;18.232;2023-07-31T01:31:42;99500.59;;;18.43;88.20
78354;BME280;67629;46.040;18.232;2023-07-31T01:32:17;99498.34;;;18.45;87.74
78354;BME280;67629;46.040;18.232;2023-07-31T01:32:50;99502.25;;;18.44;88.04
78354;BME280;67629;46.040;18.232;2023-07-31T01:33:22;99499.50;;;18.44;87.71
78354;BME280;67629;46.040;18.232;2023-07-31T01:33:54;99506.66;;;18.45;87.88
78354;BME280;67629;46.040;18.232;2023-07-31T01:34:28;99498.66;;;18.44;88.06
78354;BME280;67629;46.040;18.232;2023-07-31T01:35:00;99503.88;;;18.45;88.13
78354;BME280;67629;46.040;18.232;2023-07-31T01:35:31;99497.56;;;18.45;87.58
78354;BME280;67629;46.040;18.232;2023-07-31T01:36:02;99505.03;;;18.44;87.54
78354;BME280;67629;46.040;18.232;2023-07-31T01:36:33;99503.88;;;18.45;87.54
78354;BME280;67629;46.040;18.232;2023-07-31T01:37:04;99501.94;;;18.46;87.30
78354;BME280;67629;46.040;18.232;2023-07-31T01:37:35;99500.84;;;18.47;87.42
78354;BME280;67629;46.040;18.232;2023-07-31T01:38:06;99499.19;;;18.46;87.20
78354;BME280;67629;46.040;18.232;2023-07-31T01:38:36;99503.59;;;18.47;87.38
78354;BME280;67629;46.040;18.232;2023-07-31T01:39:07;99505.25;;;18.48;87.13
78354;BME280;67629;46.040;18.232;2023-07-31T01:39:37;99503.31;;;18.48;87.20
78354;BME280;67629;46.040;18.232;2023-07-31T01:40:08;99506.91;;;18.49;87.74
78354;BME280;67629;46.040;18.232;2023-07-31T01:40:42;99507.75;;;18.49;86.95
78354;BME280;67629;46.040;18.232;2023-07-31T01:41:13;99508.56;;;18.50;87.38
78354;BME280;67629;46.040;18.232;2023-07-31T01:41:46;99502.22;;;18.49;87.02
78354;BME280;67629;46.040;18.232;2023-07-31T01:42:58;99500.84;;;18.47;87.12
78354;BME280;67629;46.040;18.232;2023-07-31T01:43:30;99507.19;;;18.47;86.77
78354;BME280;67629;46.040;18.232;2023-07-31T01:44:01;99502.22;;;18.49;86.32
78354;BME280;67629;46.040;18.232;2023-07-31T01:44:32;99504.69;;;18.51;86.89
78354;BME280;67629;46.040;18.232;2023-07-31T01:45:03;99507.47;;;18.51;86.23
78354;BME280;67629;46.040;18.232;2023-07-31T01:45:34;99511.34;;;18.50;86.46
78354;BME280;67629;46.040;18.232;2023-07-31T01:46:04;99511.34;;;18.50;86.21
78354;BME280;67629;46.040;18.232;2023-07-31T01:46:35;99516.78;;;18.55;85.46
78354;BME280;67629;46.040;18.232;2023-07-31T01:47:06;99514.84;;;18.55;85.42
78354;BME280;67629;46.040;18.232;2023-07-31T01:47:37;99508.50;;;18.55;85.65
78354;BME280;67629;46.040;18.232;2023-07-31T01:48:07;99516.19;;;18.58;85.35
78354;BME280;67629;46.040;18.232;2023-07-31T01:48:38;99515.31;;;18.62;84.49
78354;BME280;67629;46.040;18.232;2023-07-31T01:49:09;99516.94;;;18.63;84.75
78354;BME280;67629;46.040;18.232;2023-07-31T01:49:40;99509.16;;;18.65;84.45
78354;BME280;67629;46.040;18.232;2023-07-31T01:50:10;99512.47;;;18.67;84.06
78354;BME280;67629;46.040;18.232;2023-07-31T01:50:41;99517.41;;;18.70;83.52
78354;BME280;67629;46.040;18.232;2023-07-31T01:51:12;99508.28;;;18.70;83.47
78354;BME280;67629;46.040;18.232;2023-07-31T01:51:43;99512.38;;;18.72;82.90
78354;BME280;67629;46.040;18.232;2023-07-31T01:56:21;99511.19;;;18.78;82.46
78354;BME280;67629;46.040;18.232;2023-07-31T01:56:52;99511.47;;;18.77;82.31
78354;BME280;67629;46.040;18.232;2023-07-31T01:57:23;99513.94;;;18.78;81.77
78354;BME280;67629;46.040;18.232;2023-07-31T01:57:54;99514.47;;;18.81;81.94
78354;BME280;67629;46.040;18.232;2023-07-31T01:58:24;99511.19;;;18.78;81.76
78354;BME280;67629;46.040;18.232;2023-07-31T01:58:55;99508.41;;;18.78;81.55
78354;BME280;67629;46.040;18.232;2023-07-31T01:59:25;99509.75;;;18.81;81.80
78354;BME280;67629;46.040;18.232;2023-07-31T01:59:56;99510.06;;;18.80;81.47
78354;BME280;67629;46.040;18.232;2023-07-31T02:00:27;99511.47;;;18.77;82.09
78354;BME280;67629;46.040;18.232;2023-07-31T02:00:57;99507.38;;;18.74;82.38
78354;BME280;67629;46.040;18.232;2023-07-31T02:01:28;99510.13;;;18.74;81.83
78354;BME280;67629;46.040;18.232;2023-07-31T02:01:59;99509.63;;;18.72;82.38
78354;BME280;67629;46.040;18.232;2023-07-31T02:02:29;99510.13;;;18.74;82.25
78354;BME280;67629;46.040;18.232;2023-07-31T02:03:00;99510.97;;;18.75;82.29
78354;BME280;67629;46.040;18.232;2023-07-31T02:03:30;99515.66;;;18.74;82.07
78354;BME280;67629;46.040;18.232;2023-07-31T02:04:01;99512.16;;;18.69;82.59
78354;BME280;67629;46.040;18.232;2023-07-31T02:04:31;99502.59;;;18.61;83.19
78354;BME280;67629;46.040;18.232;2023-07-31T02:05:32;99505.28;;;18.66;82.38
78354;BME280;67629;46.040;18.232;2023-07-31T02:06:03;99508.03;;;18.66;82.28
78354;BME280;67629;46.040;18.232;2023-07-31T02:06:34;99502.00;;;18.64;82.69
78354;BME280;67629;46.040;18.232;2023-07-31T02:07:05;99500.66;;;18.62;82.86
78354;BME280;67629;46.040;18.232;2023-07-31T02:07:35;99504.03;;;18.59;83.33
78354;BME280;67629;46.040;18.232;2023-07-31T02:08:09;99502.72;;;18.51;83.22
78354;BME280;67629;46.040;18.232;2023-07-31T02:08:40;99497.19;;;18.51;83.42
78354;BME280;67629;46.040;18.232;2023-07-31T02:09:10;99504.09;;;18.54;83.07
78354;BME280;67629;46.040;18.232;2023-07-31T02:09:41;99502.69;;;18.56;83.52
78354;BME280;67629;46.040;18.232;2023-07-31T02:10:11;99499.09;;;18.56;83.31
78354;BME280;67629;46.040;18.232;2023-07-31T02:10:42;99500.72;;;18.57;83.39
78354;BME280;67629;46.040;18.232;2023-07-31T02:11:13;99497.16;;;18.56;83.62
78354;BME280;67629;46.040;18.232;2023-07-31T02:11:44;99501.03;;;18.55;83.67
78354;BME280;67629;46.040;18.232;2023-07-31T02:12:14;99498.91;;;18.47;84.07
78354;BME280;67629;46.040;18.232;2023-07-31T02:12:45;99499.56;;;18.39;84.26
78354;BME280;67629;46.040;18.232;2023-07-31T02:13:15;99515.63;;;18.37;84.74
78354;BME280;67629;46.040;18.232;2023-07-31T02:13:46;99503.13;;;18.40;85.08
78354;BME280;67629;46.040;18.232;2023-07-31T02:14:17;99505.09;;;18.39;84.93
78354;BME280;67629;46.040;18.232;2023-07-31T02:14:47;99503.44;;;18.38;84.66
78354;BME280;67629;46.040;18.232;2023-07-31T02:15:18;99507.88;;;18.39;84.94
78354;BME280;67629;46.040;18.232;2023-07-31T02:15:49;99505.69;;;18.36;84.87
78354;BME280;67629;46.040;18.232;2023-07-31T02:16:20;99509.56;;;18.35;85.32
78354;BME280;67629;46.040;18.232;2023-07-31T02:16:51;99502.38;;;18.34;85.21
78354;BME280;67629;46.040;18.232;2023-07-31T02:17:22;99506.88;;;18.30;85.60
78354;BME280;67629;46.040;18.232;2023-07-31T02:17:52;99513.25;;;18.31;84.93
78354;BME280;67629;46.040;18.232;2023-07-31T02:18:23;99508.81;;;18.30;84.95
78354;BME280;67629;46.040;18.232;2023-07-31T02:18:54;99507.47;;;18.27;85.32
78354;BME280;67629;46.040;18.232;2023-07-31T02:19:24;99516.59;;;18.28;85.34
78354;BME280;67629;46.040;18.232;2023-07-31T02:19:55;99508.91;;;18.25;84.91
78354;BME280;67629;46.040;18.232;2023-07-31T02:20:25;99512.50;;;18.25;85.27
78354;BME280;67629;46.040;18.232;2023-07-31T02:20:56;99510.00;;;18.23;85.22
78354;BME280;67629;46.040;18.232;2023-07-31T02:21:27;99513.59;;;18.24;85.24
78354;BME280;67629;46.040;18.232;2023-07-31T02:21:57;99511.66;;;18.25;85.24
78354;BME280;67629;46.040;18.232;2023-07-31T02:24:04;99507.75;;;18.07;86.61
78354;BME280;67629;46.040;18.232;2023-07-31T02:24:35;99514.38;;;18.06;86.36
78354;BME280;67629;46.040;18.232;2023-07-31T02:25:05;99512.69;;;18.10;86.19
78354;BME280;67629;46.040;18.232;2023-07-31T02:25:36;99513.28;;;18.07;86.43
78354;BME280;67629;46.040;18.232;2023-07-31T02:26:07;99518.56;;;18.03;86.59
78354;BME280;67629;46.040;18.232;2023-07-31T02:26:37;99518.28;;;18.05;86.27
78354;BME280;67629;46.040;18.232;2023-07-31T02:27:08;99517.72;;;18.03;86.58
78354;BME280;67629;46.040;18.232;2023-07-31T02:27:39;99526.34;;;18.01;86.78
78354;BME280;67629;46.040;18.232;2023-07-31T02:28:09;99524.44;;;17.97;87.23
78354;BME280;67629;46.040;18.232;2023-07-31T02:28:40;99536.56;;;18.01;86.91
78354;BME280;67629;46.040;18.232;2023-07-31T02:29:13;99530.44;;;18.04;86.19
78354;BME280;67629;46.040;18.232;2023-07-31T02:29:43;99522.75;;;18.01;87.25
78354;BME280;67629;46.040;18.232;2023-07-31T02:30:14;99522.81;;;17.96;87.08
78354;BME280;67629;46.040;18.232;2023-07-31T02:30:45;99528.16;;;17.87;87.45
78354;BME280;67629;46.040;18.232;2023-07-31T02:31:19;99531.97;;;17.91;87.20
78354;BME280;67629;46.040;18.232;2023-07-31T02:31:49;99524.25;;;17.88;87.64
78354;BME280;67629;46.040;18.232;2023-07-31T02:32:20;99525.91;;;17.89;87.56
78354;BME280;67629;46.040;18.232;2023-07-31T02:32:50;99532.56;;;17.88;87.24
78354;BME280;67629;46.040;18.232;2023-07-31T02:36:01;99525.44;;;17.82;87.95
78354;BME280;67629;46.040;18.232;2023-07-31T02:36:31;99533.72;;;17.82;87.68
78354;BME280;67629;46.040;18.232;2023-07-31T02:37:02;99530.09;;;17.87;87.01
78354;BME280;67629;46.040;18.232;2023-07-31T02:37:34;99535.38;;;17.83;86.99
78354;BME280;67629;46.040;18.232;2023-07-31T02:38:04;99530.63;;;17.89;86.71
78354;BME280;67629;46.040;18.232;2023-07-31T02:38:38;99532.56;;;17.88;87.06
78354;BME280;67629;46.040;18.232;2023-07-31T02:39:09;99523.97;;;17.90;86.63
78354;BME280;67629;46.040;18.232;2023-07-31T02:39:39;99532.22;;;17.95;86.36
78354;BME280;67629;46.040;18.232;2023-07-31T02:40:10;99520.88;;;17.96;86.19
78354;BME280;67629;46.040;18.232;2023-07-31T02:40:41;99535.50;;;17.97;86.54
78354;BME280;67629;46.040;18.232;2023-07-31T02:41:12;99528.34;;;17.96;86.68
78354;BME280;67629;46.040;18.232;2023-07-31T02:41:42;99524.69;;;18.00;86.13
78354;BME280;67629;46.040;18.232;2023-07-31T02:42:14;99524.41;;;18.02;85.74
78354;BME280;67629;46.040;18.232;2023-07-31T02:42:44;99527.69;;;18.04;85.57
78354;BME280;67629;46.040;18.232;2023-07-31T02:43:15;99528.50;;;18.04;85.25
78354;BME280;67629;46.040;18.232;2023-07-31T02:43:45;99530.97;;;18.06;85.51
78354;BME280;67629;46.040;18.232;2023-07-31T02:44:16;99534.03;;;18.04;85.20
78354;BME280;67629;46.040;18.232;2023-07-31T02:44:47;99525.44;;;18.06;85.11
78354;BME280;67629;46.040;18.232;2023-07-31T02:50:41;99541.34;;;18.14;84.52
78354;BME280;67629;46.040;18.232;2023-07-31T02:51:11;99536.66;;;18.14;84.30
78354;BME280;67629;46.040;18.232;2023-07-31T02:51:42;99539.44;;;18.14;84.32
78354;BME280;67629;46.040;18.232;2023-07-31T02:52:12;99539.66;;;18.18;84.15
78354;BME280;67629;46.040;18.232;2023-07-31T02:52:43;99542.44;;;18.18;84.38
78354;BME280;67629;46.040;18.232;2023-07-31T02:53:14;99541.00;;;18.20;84.41
78354;BME280;67629;46.040;18.232;2023-07-31T02:53:44;99538.25;;;18.20;84.56
78354;BME280;67629;46.040;18.232;2023-07-31T02:54:15;99535.78;;;18.19;84.78
78354;BME280;67629;46.040;18.232;2023-07-31T02:54:46;99536.06;;;18.17;85.07
78354;BME280;67629;46.040;18.232;2023-07-31T02:55:16;99536.66;;;18.14;84.80
78354;BME280;67629;46.040;18.232;2023-07-31T02:55:47;99538.38;;;18.10;84.90
78354;BME280;67629;46.040;18.232;2023-07-31T02:56:18;99532.47;;;18.17;84.81
78354;BME280;67629;46.040;18.232;2023-07-31T02:56:48;99539.66;;;18.18;84.26
78354;BME280;67629;46.040;18.232;2023-07-31T02:57:19;99540.19;;;18.20;84.26
78354;BME280;67629;46.040;18.232;2023-07-31T02:57:50;99539.16;;;18.16;84.96
78354;BME280;67629;46.040;18.232;2023-07-31T02:58:22;99527.78;;;18.17;84.88
78354;BME280;67629;46.040;18.232;2023-07-31T02:58:53;99541.84;;;18.21;83.98
78354;BME280;67629;46.040;18.232;2023-07-31T02:59:23;99540.19;;;18.20;84.53
78354;BME280;67629;46.040;18.232;2023-07-31T02:59:55;99538.75;;;18.22;84.26
78354;BME280;67629;46.040;18.232;2023-07-31T03:00:58;99531.84;;;18.25;84.13
78354;BME280;67629;46.040;18.232;2023-07-31T03:01:29;99534.66;;;18.20;84.25
78354;BME280;67629;46.040;18.232;2023-07-31T03:02:00;99529.13;;;18.20;84.82
78354;BME280;67629;46.040;18.232;2023-07-31T03:02:30;99534.44;;;18.16;85.10
78354;BME280;67629;46.040;18.232;2023-07-31T03:03:01;99531.59;;;18.21;84.51
78354;BME280;67629;46.040;18.232;2023-07-31T03:03:31;99534.06;;;18.23;84.72
78354;BME280;67629;46.040;18.232;2023-07-31T03:04:02;99527.94;;;18.26;84.49
78354;BME280;67629;46.040;18.232;2023-07-31T03:04:33;99528.25;;;18.25;84.12
78354;BME280;67629;46.040;18.232;2023-07-31T03:05:03;99526.91;;;18.22;84.11
78354;BME280;67629;46.040;18.232;2023-07-31T03:05:34;99527.44;;;18.24;83.88
78354;BME280;67629;46.040;18.232;2023-07-31T03:06:05;99534.06;;;18.23;84.26
78354;BME280;67629;46.040;18.232;2023-07-31T03:06:36;99542.59;;;18.27;83.80
78354;BME280;67629;46.040;18.232;2023-07-31T03:07:07;99533.47;;;18.26;83.83
78354;BME280;67629;46.040;18.232;2023-07-31T03:07:38;99540.06;;;18.30;83.60
78354;BME280;67629;46.040;18.232;2023-07-31T03:08:09;99535.88;;;18.33;83.74
78354;BME280;67629;46.040;18.232;2023-07-31T03:08:39;99527.81;;;18.36;83.36
78354;BME280;67629;46.040;18.232;2023-07-31T03:09:10;99535.56;;;18.34;83.51
78354;BME280;67629;46.040;18.232;2023-07-31T03:09:40;99534.31;;;18.27;84.38
78354;BME280;67629;46.040;18.232;2023-07-31T03:14:36;99553.81;;;18.35;83.36
78354;BME280;67629;46.040;18.232;2023-07-31T03:15:07;99551.88;;;18.36;83.19
78354;BME280;67629;46.040;18.232;2023-07-31T03:15:38;99550.22;;;18.35;83.02
78354;BME280;67629;46.040;18.232;2023-07-31T03:16:12;99550.53;;;18.33;83.34
78354;BME280;67629;46.040;18.232;2023-07-31T03:16:42;99557.78;;;18.29;83.83
78354;BME280;67629;46.040;18.232;2023-07-31T03:17:13;99555.31;;;18.28;84.51
78354;BME280;67629;46.040;18.232;2023-07-31T03:17:44;99559.44;;;18.30;83.56
78354;BME280;67629;46.040;18.232;2023-07-31T03:18:14;99550.06;;;18.26;84.35
78354;BME280;67629;46.040;18.232;2023-07-31T03:18:45;99553.13;;;18.25;84.34
78354;BME280;67629;46.040;18.232;2023-07-31T03:19:15;99555.59;;;18.26;84.14
78354;BME280;67629;46.040;18.232;2023-07-31T03:19:46;99560.00;;;18.27;83.38
78354;BME280;67629;46.040;18.232;2023-07-31T03:20:17;99560.53;;;18.29;84.14
78354;BME280;67629;46.040;18.232;2023-07-31T03:20:47;99562.19;;;18.30;83.81
78354;BME280;67629;46.040;18.232;2023-07-31T03:21:18;99567.41;;;18.32;84.35
78354;BME280;67629;46.040;18.232;2023-07-31T03:21:48;99560.84;;;18.28;84.05
78354;BME280;67629;46.040;18.232;2023-07-31T03:22:19;99562.84;;;18.22;84.83
78354;BME280;67629;46.040;18.232;2023-07-31T03:22:50;99566.13;;;18.24;84.02
78354;BME280;67629;46.040;18.232;2023-07-31T03:23:20;99562.19;;;18.30;83.80
78354;BME280;67629;46.040;18.232;2023-07-31T03:23:51;99558.28;;;18.31;83.55
78354;BME280;67629;46.040;18.232;2023-07-31T03:25:17;99558.25;;;18.36;83.02
78354;BME280;67629;46.040;18.232;2023-07-31T03:26:02;99561.81;;;18.37;83.59
78354;BME280;67629;46.040;18.232;2023-07-31T03:26:33;99571.00;;;18.32;83.67
78354;BME280;67629;46.040;18.232;2023-07-31T03:27:04;99560.53;;;18.29;84.16
78354;BME280;67629;46.040;18.232;2023-07-31T03:27:36;99560.47;;;18.34;83.80
78354;BME280;67629;46.040;18.232;2023-07-31T03:28:06;99567.34;;;18.37;83.04
78354;BME280;67629;46.040;18.232;2023-07-31T03:28:37;99566.53;;;18.36;83.61
78354;BME280;67629;46.040;18.232;2023-07-31T03:29:08;99570.19;;;18.32;83.84